Time;durP1;ratioP1;P1;durP2;ratioP2;P2;SDS_P1;SDS_P2;PMS_P1;PMS_P2;Temp;Humidity;BMP_temperature;BMP_pressure;BME280_temperature;BME280_humidity;BME280_pressure;Samples;Min_cycle;Max_cycle;Signal;HPM_P1;HPM_P2
2023/12/17 00:02:23;;;;;;;10.57;6.60;;;;;;;;;;4997958;28;20900;-62
2023/12/17 00:04:48;;;;;;;8.77;6.60;;;;;;;;;;4998261;28;20459;-62
2023/12/17 00:07:14;;;;;;;9.17;6.10;;;;;;;;;;4992609;28;20494;-62
2023/12/17 00:09:39;;;;;;;8.65;6.20;;;;;;;;;;4990392;28;20598;-62
2023/12/17 00:12:05;;;;;;;8.97;6.23;;;;;;;;;;4990808;28;20491;-62
2023/12/17 00:14:30;;;;;;;8.25;5.70;;;;;;;;;;4996009;28;20428;-62
2023/12/17 00:16:55;;;;;;;9.67;5.80;;;;;;;;;;4997791;28;20919;-62
2023/12/17 00:19:21;;;;;;;8.47;5.80;;;;;;;;;;4996487;28;20412;-62
2023/12/17 00:21:46;;;;;;;9.43;5.70;;;;;;;;;;4998269;28;20966;-62
2023/12/17 00:24:11;;;;;;;8.07;5.63;;;;;;;;;;4997711;28;20677;-62
2023/12/17 00:26:36;;;;;;;7.87;5.53;;;;;;;;;;4997917;28;20388;-62
2023/12/17 00:29:02;;;;;;;7.40;5.37;;;;;;;;;;5027962;28;20487;-62
2023/12/17 00:31:27;;;;;;;7.07;4.90;;;;;;;;;;5008978;28;20441;-62
2023/12/17 00:33:52;;;;;;;7.70;5.30;;;;;;;;;;5009788;28;20546;-62
2023/12/17 00:36:17;;;;;;;7.47;5.10;;;;;;;;;;5006192;28;20392;-62
2023/12/17 00:38:43;;;;;;;6.93;4.80;;;;;;;;;;4996954;28;20804;-62
2023/12/17 00:41:08;;;;;;;6.17;4.67;;;;;;;;;;4996854;28;20424;-62
2023/12/17 00:43:35;;;;;;;6.37;4.67;;;;;;;;;;4997847;28;20459;-62
2023/12/17 00:46:00;;;;;;;6.22;4.57;;;;;;;;;;4997883;28;20404;-62
2023/12/17 00:48:25;;;;;;;7.07;4.30;;;;;;;;;;4991559;28;20413;-62
2023/12/17 00:50:51;;;;;;;6.73;4.50;;;;;;;;;;4997251;28;20492;-62
2023/12/17 00:53:16;;;;;;;10.00;5.03;;;;;;;;;;4990314;28;20404;-62
2023/12/17 00:55:41;;;;;;;6.10;4.40;;;;;;;;;;4989844;28;20427;-62
2023/12/17 00:58:06;;;;;;;7.10;4.63;;;;;;;;;;4990833;28;20801;-63
2023/12/17 01:00:32;;;;;;;6.17;4.60;;;;;;;;;;4997064;28;20409;-62
2023/12/17 01:02:57;;;;;;;7.20;4.67;;;;;;;;;;4997313;28;20405;-62
2023/12/17 01:05:22;;;;;;;6.67;4.60;;;;;;;;;;4996869;28;20491;-62
2023/12/17 01:07:48;;;;;;;7.33;4.40;;;;;;;;;;4996481;28;20419;-62
2023/12/17 01:10:13;;;;;;;6.47;4.50;;;;;;;;;;4998002;28;20880;-62
2023/12/17 01:12:38;;;;;;;7.43;4.60;;;;;;;;;;5002534;28;20409;-62
2023/12/17 01:15:04;;;;;;;6.80;4.27;;;;;;;;;;4995286;28;20404;-62
2023/12/17 01:17:29;;;;;;;7.13;4.43;;;;;;;;;;4993355;28;20408;-62
2023/12/17 01:19:55;;;;;;;6.13;4.43;;;;;;;;;;5014419;28;20821;-62
2023/12/17 01:22:20;;;;;;;6.80;3.90;;;;;;;;;;5004471;28;20416;-62
2023/12/17 01:24:49;;;;;;;6.77;4.00;;;;;;;;;;4994010;28;20869;-62
2023/12/17 01:27:14;;;;;;;6.45;3.97;;;;;;;;;;5027708;28;20929;-62
2023/12/17 01:29:40;;;;;;;6.80;4.10;;;;;;;;;;5015941;28;20415;-62
2023/12/17 01:32:05;;;;;;;5.87;4.17;;;;;;;;;;5020090;28;20399;-62
2023/12/17 01:34:31;;;;;;;6.53;4.40;;;;;;;;;;5020571;28;20403;-62
2023/12/17 01:36:56;;;;;;;7.37;4.70;;;;;;;;;;5008699;28;20416;-62
2023/12/17 01:39:21;;;;;;;6.20;4.20;;;;;;;;;;4998549;28;20447;-62
2023/12/17 01:41:46;;;;;;;6.70;4.23;;;;;;;;;;5000981;28;20428;-62
2023/12/17 01:44:12;;;;;;;6.50;4.20;;;;;;;;;;4998780;28;20406;-62
2023/12/17 01:46:37;;;;;;;5.97;4.20;;;;;;;;;;4993683;28;20414;-62
2023/12/17 01:49:03;;;;;;;6.28;4.10;;;;;;;;;;5022209;28;20553;-62
2023/12/17 01:51:28;;;;;;;6.87;4.00;;;;;;;;;;5013811;28;20395;-62
2023/12/17 01:53:53;;;;;;;7.90;4.47;;;;;;;;;;5015686;28;20408;-62
2023/12/17 01:56:18;;;;;;;7.07;4.23;;;;;;;;;;5000115;28;20397;-62
2023/12/17 01:58:44;;;;;;;5.75;3.97;;;;;;;;;;5033561;28;20406;-62
2023/12/17 02:01:09;;;;;;;7.63;4.27;;;;;;;;;;5007440;28;20507;-62
2023/12/17 02:03:35;;;;;;;8.03;4.37;;;;;;;;;;5033440;28;20434;-62
2023/12/17 02:06:00;;;;;;;7.27;4.30;;;;;;;;;;4999306;28;20409;-67
2023/12/17 02:08:26;;;;;;;6.43;4.28;;;;;;;;;;4994438;28;20470;-62
2023/12/17 02:10:51;;;;;;;6.60;4.33;;;;;;;;;;4993106;28;20444;-62
2023/12/17 02:13:17;;;;;;;5.80;4.03;;;;;;;;;;4992621;28;20483;-62
2023/12/17 02:15:43;;;;;;;6.85;3.97;;;;;;;;;;4999402;28;20500;-62
2023/12/17 02:18:08;;;;;;;6.43;3.70;;;;;;;;;;4998685;28;20495;-62
2023/12/17 02:20:34;;;;;;;7.00;3.88;;;;;;;;;;5018882;28;21386;-62
2023/12/17 02:23:02;;;;;;;6.53;3.78;;;;;;;;;;5001424;28;20520;-62
2023/12/17 02:25:27;;;;;;;5.93;3.40;;;;;;;;;;5018550;28;20391;-62
2023/12/17 02:27:55;;;;;;;6.33;3.67;;;;;;;;;;5034170;28;20484;-62
2023/12/17 02:30:20;;;;;;;8.38;4.20;;;;;;;;;;5015040;28;20374;-62
2023/12/17 02:32:45;;;;;;;5.50;3.70;;;;;;;;;;5012051;28;20406;-62
2023/12/17 02:38:13;;;;;;;5.30;3.65;;;;;;;;;;4997184;28;20408;-62
2023/12/17 02:40:39;;;;;;;5.50;3.37;;;;;;;;;;4997812;28;20417;-62
2023/12/17 02:43:05;;;;;;;5.65;3.50;;;;;;;;;;5017477;28;20995;-62
2023/12/17 02:45:30;;;;;;;6.17;3.57;;;;;;;;;;5001894;28;20652;-62
2023/12/17 02:47:55;;;;;;;5.53;3.47;;;;;;;;;;4994205;28;20415;-62
2023/12/17 02:50:20;;;;;;;7.40;3.60;;;;;;;;;;4999122;28;20725;-62
2023/12/17 02:52:46;;;;;;;6.75;3.50;;;;;;;;;;4996419;28;20401;-62
2023/12/17 02:55:11;;;;;;;6.70;3.50;;;;;;;;;;4991485;28;20745;-62
2023/12/17 02:57:36;;;;;;;6.33;3.43;;;;;;;;;;4991340;28;20880;-62
2023/12/17 03:00:03;;;;;;;7.43;3.50;;;;;;;;;;4995426;28;20811;-62
2023/12/17 03:02:28;;;;;;;6.33;3.77;;;;;;;;;;4999609;28;20873;-62
2023/12/17 03:04:53;;;;;;;6.43;3.50;;;;;;;;;;4999602;28;20522;-62
2023/12/17 03:07:19;;;;;;;6.13;3.17;;;;;;;;;;4997887;28;20393;-62
2023/12/17 03:09:44;;;;;;;7.07;3.57;;;;;;;;;;4999048;28;20412;-62
2023/12/17 03:12:09;;;;;;;6.73;3.40;;;;;;;;;;4999150;28;20409;-62
2023/12/17 03:14:35;;;;;;;6.87;3.60;;;;;;;;;;4998128;28;20458;-62
2023/12/17 03:17:00;;;;;;;6.63;3.60;;;;;;;;;;4992131;28;21033;-62
2023/12/17 03:19:25;;;;;;;7.03;3.70;;;;;;;;;;4990860;28;20868;-62
2023/12/17 03:21:50;;;;;;;7.05;3.70;;;;;;;;;;4992534;28;20962;-62
2023/12/17 03:24:16;;;;;;;7.33;4.23;;;;;;;;;;4998770;28;20397;-62
2023/12/17 03:26:41;;;;;;;8.70;4.50;;;;;;;;;;4998944;28;20435;-62
2023/12/17 03:29:06;;;;;;;8.17;4.50;;;;;;;;;;4997616;28;20405;-62
2023/12/17 03:31:31;;;;;;;8.43;4.70;;;;;;;;;;5024691;28;20488;-62
2023/12/17 03:33:57;;;;;;;8.83;4.50;;;;;;;;;;5017037;28;21211;-62
2023/12/17 03:36:22;;;;;;;8.47;5.10;;;;;;;;;;5025850;28;20404;-62
2023/12/17 03:38:47;;;;;;;8.53;5.17;;;;;;;;;;4992964;28;20511;-62
2023/12/17 03:41:19;;;;;;;8.85;4.90;;;;;;;;;;4991097;28;20413;-62
2023/12/17 03:43:45;;;;;;;9.30;5.33;;;;;;;;;;5007894;28;20463;-62
2023/12/17 03:46:10;;;;;;;8.35;5.25;;;;;;;;;;4997216;28;20550;-62
2023/12/17 03:48:35;;;;;;;9.70;5.20;;;;;;;;;;4992777;28;21174;-62
2023/12/17 03:51:00;;;;;;;8.77;5.20;;;;;;;;;;4997036;28;20404;-65
2023/12/17 03:53:26;;;;;;;9.00;5.20;;;;;;;;;;4999154;28;20754;-62
2023/12/17 03:55:52;;;;;;;8.77;5.03;;;;;;;;;;4998959;28;20412;-62
2023/12/17 03:58:17;;;;;;;8.52;4.75;;;;;;;;;;4996650;28;20438;-62
2023/12/17 04:00:42;;;;;;;10.03;4.50;;;;;;;;;;4995044;28;20405;-62
2023/12/17 04:03:07;;;;;;;8.60;4.57;;;;;;;;;;4990504;28;20444;-62
2023/12/17 04:05:33;;;;;;;9.13;4.63;;;;;;;;;;4990609;28;20467;-62
2023/12/17 04:07:58;;;;;;;8.03;4.50;;;;;;;;;;5005782;28;20416;-62
2023/12/17 04:10:24;;;;;;;9.30;4.90;;;;;;;;;;4997667;28;20403;-62
2023/12/17 04:12:49;;;;;;;9.75;4.68;;;;;;;;;;4999157;28;20989;-62
2023/12/17 04:15:15;;;;;;;9.33;4.30;;;;;;;;;;4998492;28;20408;-62
2023/12/17 04:17:40;;;;;;;9.90;4.53;;;;;;;;;;4996960;28;20401;-62
2023/12/17 04:20:06;;;;;;;7.70;4.10;;;;;;;;;;4997958;28;20409;-63
2023/12/17 04:22:33;;;;;;;8.90;4.20;;;;;;;;;;4996357;28;21392;-63
2023/12/17 04:24:58;;;;;;;9.23;3.75;;;;;;;;;;4990951;28;20777;-62
2023/12/17 04:27:23;;;;;;;7.67;3.40;;;;;;;;;;4990632;28;20423;-62
2023/12/17 04:29:49;;;;;;;7.57;3.90;;;;;;;;;;4990455;28;20515;-62
2023/12/17 04:32:14;;;;;;;7.73;4.00;;;;;;;;;;4997199;28;20915;-62
2023/12/17 04:34:39;;;;;;;6.30;4.03;;;;;;;;;;4997861;28;20408;-62
2023/12/17 04:37:04;;;;;;;7.07;4.10;;;;;;;;;;4996891;28;20412;-62
2023/12/17 04:39:30;;;;;;;6.60;4.53;;;;;;;;;;4996618;28;20454;-62
2023/12/17 04:41:55;;;;;;;4.93;3.40;;;;;;;;;;4998234;28;20915;-62
2023/12/17 04:44:20;;;;;;;5.20;3.20;;;;;;;;;;4997160;28;20911;-62
2023/12/17 04:46:46;;;;;;;5.50;3.30;;;;;;;;;;4992184;28;20613;-62
2023/12/17 04:49:11;;;;;;;6.10;4.03;;;;;;;;;;4984462;28;20405;-62
2023/12/17 04:51:36;;;;;;;5.83;4.30;;;;;;;;;;4989791;28;20499;-62
2023/12/17 04:54:01;;;;;;;7.63;5.10;;;;;;;;;;4995631;28;20409;-63
2023/12/17 04:56:27;;;;;;;8.30;5.63;;;;;;;;;;4997629;28;20950;-62
2023/12/17 04:58:52;;;;;;;7.00;5.23;;;;;;;;;;4996793;28;20424;-62
2023/12/17 05:01:17;;;;;;;8.80;5.70;;;;;;;;;;4996749;28;20413;-62
2023/12/17 05:03:43;;;;;;;7.10;5.20;;;;;;;;;;4995824;28;20491;-62
2023/12/17 05:06:08;;;;;;;7.13;4.60;;;;;;;;;;4997041;28;20397;-63
2023/12/17 05:08:33;;;;;;;7.13;4.85;;;;;;;;;;4993540;28;20415;-62
2023/12/17 05:10:59;;;;;;;6.93;5.30;;;;;;;;;;4990344;28;20404;-62
2023/12/17 05:13:24;;;;;;;8.63;5.93;;;;;;;;;;4990611;28;20400;-62
2023/12/17 05:15:49;;;;;;;8.63;5.50;;;;;;;;;;4991282;28;20903;-62
2023/12/17 05:18:15;;;;;;;8.97;5.80;;;;;;;;;;5011622;28;20403;-62
2023/12/17 05:20:40;;;;;;;10.50;7.17;;;;;;;;;;5025585;28;20407;-62
2023/12/17 05:23:06;;;;;;;9.57;6.45;;;;;;;;;;5026156;28;20547;-63
2023/12/17 05:25:31;;;;;;;10.23;7.20;;;;;;;;;;5026322;28;20806;-62
2023/12/17 05:27:56;;;;;;;11.53;8.53;;;;;;;;;;5025622;28;20407;-62
2023/12/17 05:30:22;;;;;;;11.00;7.40;;;;;;;;;;5026359;28;20837;-62
2023/12/17 05:32:48;;;;;;;12.45;7.95;;;;;;;;;;5026503;28;20414;-62
2023/12/17 05:35:13;;;;;;;12.57;8.53;;;;;;;;;;5025585;28;20933;-62
2023/12/17 05:37:39;;;;;;;13.00;8.27;;;;;;;;;;5025869;28;20482;-62
2023/12/17 05:40:06;;;;;;;11.98;8.70;;;;;;;;;;5025945;28;20403;-62
2023/12/17 05:42:32;;;;;;;13.07;8.70;;;;;;;;;;5025827;28;20691;-62
2023/12/17 05:44:57;;;;;;;13.97;9.30;;;;;;;;;;5026445;28;20830;-62
2023/12/17 05:47:22;;;;;;;14.30;9.93;;;;;;;;;;5007221;28;20451;-62
2023/12/17 05:49:48;;;;;;;13.93;9.97;;;;;;;;;;4991315;28;20397;-61
2023/12/17 05:52:13;;;;;;;14.67;10.40;;;;;;;;;;4996176;28;20924;-62
2023/12/17 05:54:38;;;;;;;15.17;10.27;;;;;;;;;;4996858;28;20405;-62
2023/12/17 05:57:04;;;;;;;15.63;11.37;;;;;;;;;;5007513;28;20431;-62
2023/12/17 05:59:29;;;;;;;16.30;11.07;;;;;;;;;;4999683;28;20408;-62
2023/12/17 06:01:55;;;;;;;17.07;11.67;;;;;;;;;;4995900;28;20969;-62
2023/12/17 06:04:20;;;;;;;16.33;12.00;;;;;;;;;;4992811;28;20413;-62
2023/12/17 06:06:46;;;;;;;18.07;12.10;;;;;;;;;;4993369;28;20393;-62
2023/12/17 06:09:12;;;;;;;16.27;12.35;;;;;;;;;;4997825;28;20437;-62
2023/12/17 06:11:37;;;;;;;17.60;12.63;;;;;;;;;;5012853;28;21024;-62
2023/12/17 06:14:03;;;;;;;17.30;13.10;;;;;;;;;;4999448;28;20999;-63
2023/12/17 06:16:28;;;;;;;17.20;12.50;;;;;;;;;;5000486;28;20408;-62
2023/12/17 06:18:53;;;;;;;16.23;12.13;;;;;;;;;;4999152;28;21066;-62
2023/12/17 06:21:21;;;;;;;17.80;13.00;;;;;;;;;;4999373;28;20412;-62
2023/12/17 06:23:46;;;;;;;16.70;12.15;;;;;;;;;;4997673;28;20639;-62
2023/12/17 06:26:11;;;;;;;15.93;11.80;;;;;;;;;;4992216;28;20412;-62
2023/12/17 06:28:37;;;;;;;15.35;11.52;;;;;;;;;;4992041;28;20396;-62
2023/12/17 06:31:02;;;;;;;16.47;11.27;;;;;;;;;;5014254;28;20918;-62
2023/12/17 06:33:27;;;;;;;15.23;11.17;;;;;;;;;;5019666;28;20399;-62
2023/12/17 06:35:53;;;;;;;14.50;10.67;;;;;;;;;;5016289;28;20490;-62
2023/12/17 06:38:18;;;;;;;16.53;11.10;;;;;;;;;;4998845;28;21457;-62
2023/12/17 06:40:43;;;;;;;16.25;11.30;;;;;;;;;;5034414;28;20488;-62
2023/12/17 06:43:08;;;;;;;14.30;10.43;;;;;;;;;;5000887;28;20432;-62
2023/12/17 06:45:34;;;;;;;16.50;11.70;;;;;;;;;;4998760;28;20417;-62
2023/12/17 06:47:59;;;;;;;15.93;11.47;;;;;;;;;;4987697;28;20947;-62
2023/12/17 06:50:24;;;;;;;17.87;11.63;;;;;;;;;;4991075;28;20408;-62
2023/12/17 06:52:50;;;;;;;16.43;11.77;;;;;;;;;;4992607;28;20872;-62
2023/12/17 06:55:15;;;;;;;16.23;12.13;;;;;;;;;;4998665;28;20953;-62
2023/12/17 06:57:46;;;;;;;17.20;12.03;;;;;;;;;;4999102;28;20870;-62
2023/12/17 07:00:12;;;;;;;15.93;11.82;;;;;;;;;;5003601;28;20495;-62
2023/12/17 07:02:37;;;;;;;16.40;11.90;;;;;;;;;;5027979;28;20937;-62
2023/12/17 07:05:03;;;;;;;14.53;10.27;;;;;;;;;;5028285;28;20446;-62
2023/12/17 07:07:28;;;;;;;14.07;10.40;;;;;;;;;;5026534;28;20387;-62
2023/12/17 07:09:54;;;;;;;13.37;10.27;;;;;;;;;;5027009;28;20399;-61
2023/12/17 07:12:20;;;;;;;14.45;10.52;;;;;;;;;;5027103;28;20407;-61
2023/12/17 07:14:45;;;;;;;13.93;9.60;;;;;;;;;;5027745;28;20910;-61
2023/12/17 07:17:10;;;;;;;15.80;10.33;;;;;;;;;;5026908;28;20417;-61
2023/12/17 07:19:35;;;;;;;14.03;10.20;;;;;;;;;;5026444;28;20480;-61
2023/12/17 07:22:01;;;;;;;15.37;10.47;;;;;;;;;;5027187;28;20842;-63
2023/12/17 07:24:26;;;;;;;16.00;10.40;;;;;;;;;;5027907;28;20777;-61
2023/12/17 07:26:51;;;;;;;14.60;10.37;;;;;;;;;;5028245;28;20545;-61
2023/12/17 07:29:16;;;;;;;15.27;10.73;;;;;;;;;;5026479;28;20415;-61
2023/12/17 07:31:42;;;;;;;14.30;10.63;;;;;;;;;;5027782;28;20497;-61
2023/12/17 07:34:07;;;;;;;15.30;10.60;;;;;;;;;;5027481;28;20406;-62
2023/12/17 07:36:32;;;;;;;14.97;10.50;;;;;;;;;;5023868;28;20418;-62
2023/12/17 07:38:58;;;;;;;15.50;10.77;;;;;;;;;;5016035;28;20419;-62
2023/12/17 07:41:23;;;;;;;17.17;11.33;;;;;;;;;;5009528;28;20395;-62
2023/12/17 07:43:48;;;;;;;15.70;11.03;;;;;;;;;;5021640;28;20422;-61
2023/12/17 07:46:13;;;;;;;15.02;11.20;;;;;;;;;;5021384;28;20812;-62
2023/12/17 07:48:39;;;;;;;16.97;12.17;;;;;;;;;;5016039;28;20411;-62
2023/12/17 07:51:04;;;;;;;18.90;12.73;;;;;;;;;;5020776;28;20411;-63
2023/12/17 07:53:30;;;;;;;18.00;11.70;;;;;;;;;;5021413;28;20407;-62
2023/12/17 07:55:57;;;;;;;17.42;12.60;;;;;;;;;;5020748;28;20643;-62
2023/12/17 07:58:24;;;;;;;18.98;13.60;;;;;;;;;;5021189;28;20795;-62
2023/12/17 08:00:49;;;;;;;18.23;13.25;;;;;;;;;;5020777;28;20619;-62
2023/12/17 08:03:14;;;;;;;20.47;13.10;;;;;;;;;;5021264;28;20758;-62
2023/12/17 08:05:39;;;;;;;19.13;13.32;;;;;;;;;;5021647;28;20397;-61
2023/12/17 08:08:05;;;;;;;21.10;14.97;;;;;;;;;;5020330;28;20411;-62
2023/12/17 08:10:30;;;;;;;24.50;16.40;;;;;;;;;;5022760;28;20906;-61
2023/12/17 08:12:55;;;;;;;25.87;17.63;;;;;;;;;;5025602;28;20407;-61
2023/12/17 08:15:20;;;;;;;29.37;19.00;;;;;;;;;;5025854;28;20774;-61
2023/12/17 08:17:46;;;;;;;28.53;18.73;;;;;;;;;;5025224;28;20414;-62
2023/12/17 08:20:11;;;;;;;28.83;19.20;;;;;;;;;;5025152;28;20426;-62
2023/12/17 08:22:36;;;;;;;28.77;19.13;;;;;;;;;;5026084;28;20744;-61
2023/12/17 08:25:02;;;;;;;26.83;18.73;;;;;;;;;;5025935;28;20403;-62
2023/12/17 08:27:27;;;;;;;27.80;18.83;;;;;;;;;;5025881;28;20771;-62
2023/12/17 08:29:52;;;;;;;28.27;18.73;;;;;;;;;;5024583;28;20775;-61
2023/12/17 08:32:18;;;;;;;25.58;17.77;;;;;;;;;;5026453;28;20480;-61
2023/12/17 08:34:43;;;;;;;22.83;15.77;;;;;;;;;;5026305;28;20438;-61
2023/12/17 08:37:08;;;;;;;22.30;15.93;;;;;;;;;;5025902;28;20959;-62
2023/12/17 08:39:34;;;;;;;22.47;15.23;;;;;;;;;;5025195;28;20410;-62
2023/12/17 08:41:59;;;;;;;22.67;15.90;;;;;;;;;;5026359;28;20464;-61
2023/12/17 08:44:25;;;;;;;22.83;15.63;;;;;;;;;;5026157;28;20391;-61
2023/12/17 08:46:51;;;;;;;22.02;16.20;;;;;;;;;;5025958;28;20782;-61
2023/12/17 08:49:16;;;;;;;23.50;15.87;;;;;;;;;;5020293;28;20464;-61
2023/12/17 08:51:41;;;;;;;23.47;16.53;;;;;;;;;;5024961;28;20399;-62
2023/12/17 08:54:10;;;;;;;22.00;15.40;;;;;;;;;;5025722;28;20403;-62
2023/12/17 08:56:36;;;;;;;22.73;15.38;;;;;;;;;;5026008;28;20387;-62
2023/12/17 08:59:01;;;;;;;23.07;15.27;;;;;;;;;;5024637;28;20747;-63
2023/12/17 09:01:26;;;;;;;23.00;15.65;;;;;;;;;;5026640;28;20383;-62
2023/12/17 09:03:51;;;;;;;21.03;14.00;;;;;;;;;;5018779;28;20449;-61
2023/12/17 09:06:17;;;;;;;19.20;13.90;;;;;;;;;;5020161;28;20391;-61
2023/12/17 09:08:42;;;;;;;19.03;13.90;;;;;;;;;;5019817;28;20398;-61
2023/12/17 09:11:08;;;;;;;20.37;14.07;;;;;;;;;;5020471;28;20767;-62
2023/12/17 09:13:33;;;;;;;21.40;14.15;;;;;;;;;;5020026;28;20449;-62
2023/12/17 09:15:58;;;;;;;20.70;14.40;;;;;;;;;;5020536;28;20419;-61
2023/12/17 09:18:24;;;;;;;18.90;13.20;;;;;;;;;;5018823;28;20417;-62
2023/12/17 09:20:49;;;;;;;19.00;13.18;;;;;;;;;;5018828;28;20407;-62
2023/12/17 09:23:14;;;;;;;16.10;12.10;;;;;;;;;;5020103;28;20630;-61
2023/12/17 09:25:40;;;;;;;16.47;11.80;;;;;;;;;;5019542;28;20414;-61
2023/12/17 09:28:05;;;;;;;16.40;11.73;;;;;;;;;;5019420;28;20413;-62
2023/12/17 09:30:30;;;;;;;15.87;12.17;;;;;;;;;;5019851;28;20399;-62
2023/12/17 09:32:55;;;;;;;16.77;12.07;;;;;;;;;;5024734;28;20414;-62
2023/12/17 09:35:21;;;;;;;15.53;11.77;;;;;;;;;;5023334;28;20414;-62
2023/12/17 09:37:47;;;;;;;16.97;12.00;;;;;;;;;;5023469;28;20878;-61
2023/12/17 09:40:12;;;;;;;16.98;12.38;;;;;;;;;;5023887;28;21075;-61
2023/12/17 09:42:39;;;;;;;15.23;11.50;;;;;;;;;;5038642;28;20413;-61
2023/12/17 09:45:05;;;;;;;15.40;11.32;;;;;;;;;;5028348;28;20430;-61
2023/12/17 09:47:30;;;;;;;15.52;11.18;;;;;;;;;;5023471;28;21164;-63
2023/12/17 09:49:55;;;;;;;16.50;11.73;;;;;;;;;;5019207;28;20774;-61
2023/12/17 09:52:21;;;;;;;16.20;11.83;;;;;;;;;;5023371;28;20434;-61
2023/12/17 09:54:49;;;;;;;16.80;11.97;;;;;;;;;;5039413;28;20410;-61
2023/12/17 09:57:14;;;;;;;14.05;10.73;;;;;;;;;;5022841;28;20407;-61
2023/12/17 09:59:40;;;;;;;14.73;10.70;;;;;;;;;;5022868;28;20422;-62
2023/12/17 10:02:05;;;;;;;15.25;10.77;;;;;;;;;;5021854;28;20615;-61
2023/12/17 10:04:30;;;;;;;14.30;10.37;;;;;;;;;;5023796;28;20853;-61
2023/12/17 10:06:56;;;;;;;14.23;10.37;;;;;;;;;;5023957;28;20421;-61
2023/12/17 10:09:21;;;;;;;13.60;10.30;;;;;;;;;;5022370;28;20997;-61
2023/12/17 10:11:47;;;;;;;15.13;11.00;;;;;;;;;;5024046;28;20863;-61
2023/12/17 10:14:22;;;;;;;14.57;10.27;;;;;;;;;;5037767;28;20407;-61
2023/12/17 10:16:47;;;;;;;14.32;10.38;;;;;;;;;;5023197;28;20427;-62
2023/12/17 10:19:13;;;;;;;13.77;10.68;;;;;;;;;;5021877;28;20453;-62
2023/12/17 10:21:38;;;;;;;12.57;9.90;;;;;;;;;;5022476;28;20399;-61
2023/12/17 10:24:03;;;;;;;14.40;10.57;;;;;;;;;;5022617;28;20883;-62
2023/12/17 10:26:40;;;;;;;13.57;9.90;;;;;;;;;;5023386;28;20403;-62
2023/12/17 10:29:05;;;;;;;13.90;10.20;;;;;;;;;;5021845;28;20956;-62
2023/12/17 10:31:31;;;;;;;14.53;10.57;;;;;;;;;;5038162;28;20406;-61
2023/12/17 10:33:58;;;;;;;13.02;9.52;;;;;;;;;;5037776;28;20399;-61
2023/12/17 10:36:23;;;;;;;12.75;9.23;;;;;;;;;;5023014;28;20399;-61
2023/12/17 10:38:48;;;;;;;11.83;8.93;;;;;;;;;;5022515;28;20407;-61
2023/12/17 10:41:14;;;;;;;12.23;8.75;;;;;;;;;;5022049;28;20489;-61
2023/12/17 10:43:40;;;;;;;11.37;8.53;;;;;;;;;;5023450;28;20422;-61
2023/12/17 10:46:05;;;;;;;11.20;8.73;;;;;;;;;;5030239;28;20572;-62
2023/12/17 10:48:31;;;;;;;11.03;8.13;;;;;;;;;;5016379;28;20481;-61
2023/12/17 10:50:56;;;;;;;11.13;8.40;;;;;;;;;;5037633;28;20786;-61
2023/12/17 10:53:21;;;;;;;11.10;8.30;;;;;;;;;;5036493;28;20510;-61
2023/12/17 10:55:47;;;;;;;11.77;8.77;;;;;;;;;;5022067;28;20655;-61
2023/12/17 10:58:15;;;;;;;11.13;8.63;;;;;;;;;;5021760;28;20900;-61
2023/12/17 11:00:40;;;;;;;10.52;8.68;;;;;;;;;;5035911;28;20449;-61
2023/12/17 11:03:06;;;;;;;11.23;8.47;;;;;;;;;;5022041;28;20474;-62
2023/12/17 11:05:31;;;;;;;10.45;8.18;;;;;;;;;;5021045;28;20502;-61
2023/12/17 11:07:56;;;;;;;10.83;8.27;;;;;;;;;;5021552;28;20860;-61
2023/12/17 11:10:23;;;;;;;11.10;8.10;;;;;;;;;;5022622;28;20395;-61
2023/12/17 11:12:48;;;;;;;11.32;8.43;;;;;;;;;;5036007;28;20912;-61
2023/12/17 11:15:14;;;;;;;10.40;8.87;;;;;;;;;;5036985;28;20399;-62
2023/12/17 11:17:39;;;;;;;13.02;9.93;;;;;;;;;;5036150;28;20407;-61
2023/12/17 11:20:05;;;;;;;12.67;9.97;;;;;;;;;;5032667;28;20465;-61
2023/12/17 11:22:35;;;;;;;14.07;10.60;;;;;;;;;;5019340;28;20402;-61
2023/12/17 11:25:00;;;;;;;13.00;9.82;;;;;;;;;;5036906;28;20465;-66
2023/12/17 11:27:25;;;;;;;14.20;10.77;;;;;;;;;;5035722;28;20395;-63
2023/12/17 11:29:51;;;;;;;14.07;10.30;;;;;;;;;;5021750;28;21170;-61
2023/12/17 11:32:17;;;;;;;13.82;10.15;;;;;;;;;;5022146;28;20399;-61
2023/12/17 11:34:42;;;;;;;13.07;9.90;;;;;;;;;;5021518;28;20414;-61
2023/12/17 11:37:08;;;;;;;14.07;10.50;;;;;;;;;;5028931;28;20792;-61
2023/12/17 11:39:34;;;;;;;15.02;10.55;;;;;;;;;;5026799;28;20391;-61
2023/12/17 11:41:59;;;;;;;14.43;10.80;;;;;;;;;;5026206;28;20414;-61
2023/12/17 11:44:24;;;;;;;14.27;11.02;;;;;;;;;;5014191;28;20410;-61
2023/12/17 11:46:50;;;;;;;15.00;10.60;;;;;;;;;;5021737;28;20406;-61
2023/12/17 11:49:23;;;;;;;14.67;11.23;;;;;;;;;;5015658;28;20410;-61
2023/12/17 11:51:48;;;;;;;15.75;11.30;;;;;;;;;;5021463;28;20391;-60
2023/12/17 11:54:17;;;;;;;15.52;11.85;;;;;;;;;;5020726;28;20752;-61
2023/12/17 11:56:43;;;;;;;17.98;12.75;;;;;;;;;;5019649;28;20457;-61
2023/12/17 11:59:08;;;;;;;16.20;11.97;;;;;;;;;;5019365;28;20402;-62
2023/12/17 12:01:33;;;;;;;16.70;12.00;;;;;;;;;;5021037;28;20414;-61
2023/12/17 12:03:59;;;;;;;17.03;11.97;;;;;;;;;;5036090;28;20819;-61
2023/12/17 12:06:25;;;;;;;16.85;12.35;;;;;;;;;;5020458;28;20410;-61
2023/12/17 12:08:50;;;;;;;18.07;12.63;;;;;;;;;;5020537;28;21007;-61
2023/12/17 12:11:16;;;;;;;17.58;12.70;;;;;;;;;;5020780;28;20628;-61
2023/12/17 12:13:43;;;;;;;18.13;12.63;;;;;;;;;;5020968;28;20406;-61
2023/12/17 12:16:08;;;;;;;16.30;12.48;;;;;;;;;;5019552;28;20418;-61
2023/12/17 12:18:34;;;;;;;18.13;12.70;;;;;;;;;;5020213;28;20806;-61
2023/12/17 12:20:59;;;;;;;17.67;13.15;;;;;;;;;;5020892;28;20730;-61
2023/12/17 12:23:24;;;;;;;17.73;12.47;;;;;;;;;;5034941;28;20430;-62
2023/12/17 12:25:49;;;;;;;19.80;13.30;;;;;;;;;;5021483;28;20650;-61
2023/12/17 12:28:16;;;;;;;18.37;12.70;;;;;;;;;;5019326;28;20843;-62
2023/12/17 12:30:42;;;;;;;19.20;12.70;;;;;;;;;;5021062;28;20417;-61
2023/12/17 12:33:09;;;;;;;19.47;12.57;;;;;;;;;;5019949;28;20922;-62
2023/12/17 12:35:35;;;;;;;18.73;13.02;;;;;;;;;;5021138;28;20837;-61
2023/12/17 12:38:00;;;;;;;19.63;13.52;;;;;;;;;;5019049;28;20963;-63
2023/12/17 12:40:30;;;;;;;18.87;12.57;;;;;;;;;;5020644;28;20479;-62
2023/12/17 12:43:02;;;;;;;19.65;13.05;;;;;;;;;;5021183;28;20441;-61
2023/12/17 12:45:27;;;;;;;20.38;13.45;;;;;;;;;;5019991;28;20399;-61
2023/12/17 12:47:53;;;;;;;19.33;13.23;;;;;;;;;;5014694;28;20413;-62
2023/12/17 12:50:18;;;;;;;19.40;12.37;;;;;;;;;;5020080;28;20407;-62
2023/12/17 12:52:43;;;;;;;21.13;12.90;;;;;;;;;;5020708;28;20411;-61
2023/12/17 12:55:09;;;;;;;19.87;12.70;;;;;;;;;;5019935;28;20941;-62
2023/12/17 12:57:35;;;;;;;19.10;12.50;;;;;;;;;;5020177;28;20834;-62
2023/12/17 13:00:00;;;;;;;20.05;12.60;;;;;;;;;;5019400;28;20942;-61
2023/12/17 13:02:25;;;;;;;20.17;12.90;;;;;;;;;;5020112;28;20449;-61
2023/12/17 13:04:51;;;;;;;17.97;12.73;;;;;;;;;;5020811;28;20433;-61
2023/12/17 13:07:16;;;;;;;17.93;12.27;;;;;;;;;;5034704;28;20446;-62
2023/12/17 13:09:41;;;;;;;21.63;12.93;;;;;;;;;;5019813;28;20494;-62
2023/12/17 13:12:06;;;;;;;19.20;12.80;;;;;;;;;;5019397;28;20735;-62
2023/12/17 13:14:32;;;;;;;17.73;12.57;;;;;;;;;;5020696;28;20888;-62
2023/12/17 13:16:58;;;;;;;19.38;12.43;;;;;;;;;;5019662;28;20422;-62
2023/12/17 13:19:24;;;;;;;20.40;12.80;;;;;;;;;;5019425;28;20823;-61
2023/12/17 13:21:49;;;;;;;23.58;14.43;;;;;;;;;;5019694;28;20938;-61
2023/12/17 13:24:14;;;;;;;17.60;11.63;;;;;;;;;;5020016;28;20775;-61
2023/12/17 13:26:40;;;;;;;19.83;12.17;;;;;;;;;;5018546;28;20414;-61
2023/12/17 13:29:05;;;;;;;19.07;11.80;;;;;;;;;;5019038;28;20506;-61
2023/12/17 13:31:30;;;;;;;18.83;11.40;;;;;;;;;;5019981;28;20475;-61
2023/12/17 13:33:56;;;;;;;17.77;11.57;;;;;;;;;;5019960;28;20407;-62
2023/12/17 13:36:21;;;;;;;20.50;11.10;;;;;;;;;;5019656;28;20513;-61
2023/12/17 13:38:46;;;;;;;19.23;10.90;;;;;;;;;;5018574;28;20495;-61
2023/12/17 13:41:12;;;;;;;20.25;10.10;;;;;;;;;;5019429;28;20411;-61
2023/12/17 13:43:38;;;;;;;19.60;10.37;;;;;;;;;;5020138;28;20956;-61
2023/12/17 13:46:04;;;;;;;18.70;9.90;;;;;;;;;;5020800;28;20426;-61
2023/12/17 13:48:29;;;;;;;19.38;9.85;;;;;;;;;;5015080;28;20720;-61
2023/12/17 13:50:54;;;;;;;16.90;8.90;;;;;;;;;;5019283;28;20403;-61
2023/12/17 13:53:20;;;;;;;19.40;9.37;;;;;;;;;;5019550;28;20407;-61
2023/12/17 13:55:45;;;;;;;17.17;7.87;;;;;;;;;;5020231;28;20444;-61
2023/12/17 13:58:10;;;;;;;16.93;8.43;;;;;;;;;;5017650;28;20421;-61
2023/12/17 14:00:36;;;;;;;18.45;7.95;;;;;;;;;;5019856;28;20746;-61
2023/12/17 14:03:01;;;;;;;19.03;8.77;;;;;;;;;;5018548;28;20413;-61
2023/12/17 14:05:29;;;;;;;16.63;8.07;;;;;;;;;;5018848;28;21309;-61
2023/12/17 14:07:55;;;;;;;16.65;7.63;;;;;;;;;;5014542;28;20412;-61
2023/12/17 14:10:22;;;;;;;19.48;8.43;;;;;;;;;;5018505;28;20394;-61
2023/12/17 14:12:47;;;;;;;15.45;7.93;;;;;;;;;;5020186;28;20529;-61
2023/12/17 14:15:12;;;;;;;18.53;8.20;;;;;;;;;;5018789;28;20407;-61
2023/12/17 14:17:38;;;;;;;17.97;8.27;;;;;;;;;;5019885;28;20462;-61
2023/12/17 14:20:03;;;;;;;17.47;7.97;;;;;;;;;;5021284;28;20427;-62
2023/12/17 14:22:28;;;;;;;17.87;7.13;;;;;;;;;;5022883;28;20766;-61